Time;durP1;ratioP1;P1;durP2;ratioP2;P2;SDS_P1;SDS_P2;PMS_P1;PMS_P2;Temp;Humidity;BMP_temperature;BMP_pressure;BME280_temperature;BME280_humidity;BME280_pressure;Samples;Min_cycle;Max_cycle;Signal;HPM_P1;HPM_P2
2023/03/29 00:01:05;;;;;;;2.50;1.53;;;;;;;6.62;56.81;101728.41;5034266;28;20209;-83
2023/03/29 00:03:32;;;;;;;2.73;1.30;;;;;;;6.60;56.11;101724.94;5025440;28;20197;-84
2023/03/29 00:06:02;;;;;;;3.53;1.27;;;;;;;6.52;55.28;101733.47;5014817;28;20209;-85
2023/03/29 00:08:30;;;;;;;3.93;1.30;;;;;;;6.48;55.84;101756.69;5013619;28;20203;-85
2023/03/29 00:10:57;;;;;;;4.50;1.77;;;;;;;6.40;56.12;101755.69;5014546;28;20217;-83
2023/03/29 00:13:24;;;;;;;4.50;2.30;;;;;;;6.37;55.98;101753.91;5016853;28;20226;-82
2023/03/29 00:15:51;;;;;;;2.73;1.50;;;;;;;6.41;55.71;101750.53;5034005;28;20264;-84
2023/03/29 00:18:17;;;;;;;3.00;1.50;;;;;;;6.46;55.75;101751.50;5033769;28;20246;-84
2023/03/29 00:20:43;;;;;;;2.93;1.97;;;;;;;6.29;56.01;101753.75;4672144;28;10000455;-83
2023/03/29 00:23:11;;;;;;;4.17;1.53;;;;;;;6.43;56.28;101760.94;5016052;28;20227;-84
2023/03/29 00:25:37;;;;;;;4.43;1.40;;;;;;;6.44;56.21;101744.53;5020173;28;20647;-83
2023/03/29 00:28:04;;;;;;;2.83;1.50;;;;;;;6.48;55.67;101747.22;5023814;28;20701;-85
2023/03/29 00:30:31;;;;;;;2.40;1.33;;;;;;;6.49;56.25;101730.78;5035492;28;20207;-83
2023/03/29 00:32:57;;;;;;;3.07;1.50;;;;;;;6.47;56.65;101729.03;5036878;28;20358;-83
2023/03/29 00:35:23;;;;;;;3.33;1.80;;;;;;;6.42;54.77;101715.97;5037278;28;20206;-85
2023/03/29 00:37:51;;;;;;;2.20;1.53;;;;;;;6.50;55.99;101735.16;5035898;28;20202;-85
2023/03/29 00:40:19;;;;;;;2.20;1.67;;;;;;;6.40;55.13;101707.28;5037015;28;20234;-84
2023/03/29 00:42:45;;;;;;;2.67;1.43;;;;;;;6.49;56.24;101730.78;5035807;28;20272;-85
2023/03/29 00:45:20;;;;;;;3.30;1.57;;;;;;;6.49;56.44;101722.16;5036994;28;20237;-85
2023/03/29 00:47:50;;;;;;;1.83;1.30;;;;;;;6.54;56.14;101718.81;5037925;28;20244;-85
2023/03/29 00:50:21;;;;;;;3.30;1.80;;;;;;;6.51;56.37;101715.28;5037251;28;20628;-85
2023/03/29 00:52:53;;;;;;;1.70;1.40;;;;;;;6.52;56.24;101704.94;5022214;28;20226;-83
2023/03/29 00:55:23;;;;;;;4.13;1.73;;;;;;;6.39;56.16;101705.53;5034092;28;20206;-84
2023/03/29 00:57:52;;;;;;;3.73;1.57;;;;;;;6.41;56.96;101690.88;5036761;28;20205;-83
2023/03/29 01:00:23;;;;;;;3.63;1.60;;;;;;;6.32;55.91;101680.31;5037105;28;20272;-85
2023/03/29 01:02:53;;;;;;;3.33;2.00;;;;;;;6.41;57.37;101684.84;5037131;28;20253;-84
2023/03/29 01:05:25;;;;;;;2.13;1.47;;;;;;;6.50;57.24;101669.41;5037870;28;20221;-83
2023/03/29 01:07:57;;;;;;;3.90;1.80;;;;;;;6.44;56.99;101653.75;5037312;28;20209;-83
2023/03/29 01:10:31;;;;;;;2.50;1.80;;;;;;;6.48;57.72;101653.84;5036703;28;20620;-84
2023/03/29 01:13:04;;;;;;;1.60;1.30;;;;;;;6.40;57.11;101638.97;5034553;28;20233;-83
2023/03/29 01:15:31;;;;;;;3.47;1.83;;;;;;;6.23;57.39;101639.56;5028739;28;20261;-83
2023/03/29 01:18:00;;;;;;;2.63;1.63;;;;;;;6.20;56.86;101636.03;5035844;28;20194;-83
2023/03/29 01:20:42;;;;;;;1.70;1.50;;;;;;;6.28;58.08;101614.59;5035667;28;20229;-82
2023/03/29 01:23:21;;;;;;;3.17;2.03;;;;;;;6.33;58.45;101587.00;5027528;28;20258;-82
2023/03/29 01:26:00;;;;;;;2.10;1.60;;;;;;;6.34;57.82;101580.09;5028462;28;20210;-83
2023/03/29 01:28:33;;;;;;;2.70;1.60;;;;;;;6.34;58.19;101574.91;5035119;28;20216;-83
2023/03/29 01:31:07;;;;;;;2.47;1.60;;;;;;;6.31;58.47;101565.38;5034562;28;20263;-83
2023/03/29 01:33:39;;;;;;;5.07;2.00;;;;;;;6.34;59.01;101555.06;5033033;28;20275;-83
2023/03/29 01:36:12;;;;;;;2.60;1.63;;;;;;;6.18;59.42;101542.66;5019433;28;20207;-81
2023/03/29 01:38:43;;;;;;;3.20;1.90;;;;;;;6.12;60.29;101542.56;5014483;28;20673;-84
2023/03/29 01:41:10;;;;;;;3.07;2.13;;;;;;;6.06;60.13;101514.81;5014638;28;20262;-82
2023/03/29 01:43:44;;;;;;;3.33;2.10;;;;;;;6.14;61.40;101494.22;5014026;28;20584;-83
2023/03/29 01:46:19;;;;;;;2.87;1.90;;;;;;;6.17;61.79;101465.75;5014767;28;20206;-83
2023/03/29 01:48:50;;;;;;;4.50;2.23;;;;;;;6.12;62.11;101451.84;5014727;28;20206;-83
2023/03/29 01:51:22;;;;;;;2.23;2.07;;;;;;;6.16;62.76;101417.34;5014317;28;20234;-83
2023/03/29 01:53:56;;;;;;;3.47;2.50;;;;;;;6.16;63.53;101399.19;5018215;28;20210;-84
2023/03/29 01:56:28;;;;;;;3.63;2.57;;;;;;;6.03;64.66;101371.38;5031582;28;20696;-83
2023/03/29 01:59:00;;;;;;;3.70;1.93;;;;;;;6.08;65.19;101339.47;5033623;28;20224;-83
2023/03/29 02:01:32;;;;;;;3.87;2.40;;;;;;;6.12;65.42;101306.69;5033832;28;20233;-83
2023/03/29 02:04:03;;;;;;;3.53;2.40;;;;;;;6.22;65.32;101297.31;5033048;28;20210;-82
2023/03/29 02:06:31;;;;;;;3.07;2.53;;;;;;;6.16;65.20;101274.75;5034689;28;20202;-81
2023/03/29 02:08:58;;;;;;;4.23;2.77;;;;;;;6.08;66.17;101264.28;5034364;28;20210;-83
2023/03/29 02:11:28;;;;;;;5.70;2.90;;;;;;;6.16;67.09;101248.84;5033691;28;20292;-83
2023/03/29 02:13:56;;;;;;;3.63;3.23;;;;;;;6.22;66.54;101211.75;5033333;28;20700;-84
2023/03/29 02:16:22;;;;;;;4.13;2.50;;;;;;;6.12;67.50;101196.09;5033972;28;20230;-83
2023/03/29 02:18:52;;;;;;;2.57;2.23;;;;;;;6.21;67.15;101182.38;5033548;28;20237;-83
2023/03/29 02:21:25;;;;;;;2.80;2.50;;;;;;;6.25;67.28;101165.16;5033639;28;20625;-84
2023/03/29 02:23:54;;;;;;;3.07;2.30;;;;;;;6.22;67.40;101153.00;5019509;28;20280;-83
2023/03/29 02:26:23;;;;;;;2.93;2.50;;;;;;;6.29;67.47;101146.16;5020244;28;20222;-83
2023/03/29 02:28:50;;;;;;;3.67;2.53;;;;;;;6.19;68.32;101150.38;5033927;28;20210;-84
2023/03/29 02:31:24;;;;;;;4.03;2.50;;;;;;;6.16;68.12;101132.19;5033471;28;20276;-83
2023/03/29 02:33:54;;;;;;;2.63;2.40;;;;;;;5.93;69.42;101132.81;5033853;28;20240;-83
2023/03/29 02:36:26;;;;;;;4.57;2.83;;;;;;;6.02;69.48;101110.47;5033025;28;20708;-83
2023/03/29 02:38:53;;;;;;;3.30;2.67;;;;;;;6.01;69.82;101086.28;5033180;28;20217;-83
2023/03/29 02:41:22;;;;;;;4.80;3.17;;;;;;;6.01;70.59;101072.47;5017932;28;20739;-83
2023/03/29 02:43:50;;;;;;;2.90;2.70;;;;;;;5.94;71.59;101055.94;5023773;28;20224;-82
2023/03/29 02:46:18;;;;;;;3.83;3.20;;;;;;;5.84;72.49;101029.06;5033262;28;20244;-83
2023/03/29 02:48:46;;;;;;;3.33;2.77;;;;;;;5.86;72.95;100987.63;5033640;28;20240;-83
2023/03/29 02:51:16;;;;;;;3.43;3.17;;;;;;;5.67;74.17;100940.84;5033054;28;20642;-83
2023/03/29 02:53:48;;;;;;;4.00;3.27;;;;;;;5.81;74.76;100904.69;5020683;28;20207;-83
2023/03/29 02:56:15;;;;;;;3.37;3.00;;;;;;;5.81;74.94;100876.19;5013946;28;20249;-83
2023/03/29 02:58:41;;;;;;;4.03;3.30;;;;;;;5.80;75.92;100850.28;5025152;28;20253;-83
2023/03/29 03:01:09;;;;;;;4.07;3.43;;;;;;;5.86;76.43;100816.63;5033080;28;20244;-83
2023/03/29 03:03:36;;;;;;;4.37;3.63;;;;;;;5.94;76.55;100805.47;5033085;28;20330;-83
2023/03/29 03:06:03;;;;;;;4.73;4.13;;;;;;;5.86;76.58;100795.91;5032522;28;20264;-83
2023/03/29 03:08:30;;;;;;;3.50;3.23;;;;;;;5.90;77.10;100770.03;5032292;28;20283;-83
2023/03/29 03:10:58;;;;;;;3.83;3.53;;;;;;;5.90;77.45;100759.66;5032575;28;20664;-83
2023/03/29 03:13:24;;;;;;;3.00;2.80;;;;;;;5.92;78.13;100745.00;5032865;28;20211;-83
2023/03/29 03:15:51;;;;;;;3.67;3.37;;;;;;;6.01;78.52;100738.19;5032374;28;20229;-82
2023/03/29 03:18:17;;;;;;;3.77;3.20;;;;;;;6.05;78.61;100727.81;5019206;28;20329;-83
2023/03/29 03:20:54;;;;;;;4.27;3.20;;;;;;;6.00;78.29;100731.25;5013699;28;20668;-83
2023/03/29 03:23:21;;;;;;;4.30;3.60;;;;;;;5.96;77.95;100735.53;5024836;28;20254;-83
2023/03/29 03:25:48;;;;;;;3.43;3.13;;;;;;;5.62;78.56;100730.16;5031614;28;20206;-82
2023/03/29 03:28:15;;;;;;;3.63;3.33;;;;;;;5.77;79.02;100714.72;5046198;28;20724;-83
2023/03/29 03:30:41;;;;;;;3.77;3.47;;;;;;;5.87;78.50;100714.78;5045196;28;20206;-81
2023/03/29 03:33:07;;;;;;;4.23;3.33;;;;;;;5.91;78.20;100719.97;5032248;28;20256;-83
2023/03/29 03:35:34;;;;;;;5.10;3.50;;;;;;;5.91;78.81;100726.88;5021588;28;20640;-82
2023/03/29 03:38:02;;;;;;;4.20;3.90;;;;;;;5.93;78.66;100715.66;5017535;28;20262;-84
2023/03/29 03:40:28;;;;;;;4.67;4.13;;;;;;;5.99;78.63;100729.53;5032601;28;20268;-84
2023/03/29 03:42:54;;;;;;;3.80;3.50;;;;;;;5.99;78.88;100732.97;5032317;28;20250;-82
2023/03/29 03:45:21;;;;;;;5.97;3.70;;;;;;;5.88;79.63;100729.44;5031974;28;20202;-82
2023/03/29 03:47:47;;;;;;;4.23;4.00;;;;;;;5.87;78.73;100719.94;5031994;28;20206;-83
2023/03/29 03:50:13;;;;;;;4.03;3.63;;;;;;;5.89;78.70;100721.69;5032162;28;20656;-83
2023/03/29 03:52:40;;;;;;;5.23;3.30;;;;;;;5.92;79.25;100720.81;5027624;28;20235;-83
2023/03/29 03:55:08;;;;;;;3.27;3.07;;;;;;;5.93;79.70;100719.97;5013968;28;20238;-83
2023/03/29 03:57:36;;;;;;;3.47;3.17;;;;;;;5.88;80.81;100696.63;4998008;28;20265;-84
2023/03/29 04:00:15;;;;;;;4.47;3.23;;;;;;;5.90;80.53;100684.53;5024484;28;20206;-84
2023/03/29 04:02:42;;;;;;;3.47;3.17;;;;;;;5.94;79.80;100682.81;5012054;28;20241;-83
2023/03/29 04:05:08;;;;;;;4.07;3.53;;;;;;;5.97;79.63;100694.09;5011736;28;20203;-84
2023/03/29 04:07:35;;;;;;;5.47;3.83;;;;;;;5.98;79.41;100707.91;5014281;28;20210;-85
2023/03/29 04:10:01;;;;;;;3.70;3.40;;;;;;;5.97;79.25;100706.19;5032585;28;20206;-83
2023/03/29 04:12:29;;;;;;;4.07;3.50;;;;;;;5.99;79.70;100696.72;5032124;28;20288;-84
2023/03/29 04:14:56;;;;;;;4.30;3.50;;;;;;;6.01;80.15;100695.00;5031911;28;20460;-83
2023/03/29 04:17:22;;;;;;;3.70;3.20;;;;;;;5.73;78.63;100715.56;5034030;28;20210;-83
2023/03/29 04:19:48;;;;;;;3.70;3.33;;;;;;;5.80;79.46;100718.16;5035174;28;20238;-83
2023/03/29 04:22:15;;;;;;;4.33;3.50;;;;;;;5.81;79.09;100715.59;5034962;28;20249;-85
2023/03/29 04:24:41;;;;;;;4.10;3.30;;;;;;;5.78;79.93;100708.66;5021183;28;20246;-85
2023/03/29 04:27:08;;;;;;;4.00;3.70;;;;;;;5.82;80.37;100700.91;5039755;28;20206;-84
2023/03/29 04:29:36;;;;;;;3.97;3.67;;;;;;;5.81;78.94;100704.34;5042252;28;20206;-85
2023/03/29 04:32:02;;;;;;;4.53;4.00;;;;;;;5.85;79.78;100711.31;5039318;28;20713;-85
2023/03/29 04:34:28;;;;;;;4.80;4.40;;;;;;;5.79;79.20;100722.50;5038133;28;20221;-83
2023/03/29 04:36:57;;;;;;;4.60;4.20;;;;;;;5.78;79.37;100721.59;5038327;28;20202;-85
2023/03/29 04:39:30;;;;;;;4.57;4.10;;;;;;;5.75;78.48;100734.56;5036942;28;20221;-82
2023/03/29 04:41:57;;;;;;;6.93;4.30;;;;;;;5.80;78.27;100741.47;5035835;28;20226;-83
2023/03/29 04:44:23;;;;;;;6.07;4.23;;;;;;;5.83;78.23;100746.66;5037152;28;20218;-85
2023/03/29 04:46:51;;;;;;;4.57;4.17;;;;;;;5.75;78.56;100754.41;5036653;28;20241;-84
2023/03/29 04:49:17;;;;;;;5.03;4.50;;;;;;;5.85;78.49;100751.03;5036506;28;20206;-84
2023/03/29 04:51:43;;;;;;;5.03;4.63;;;;;;;5.84;78.72;100751.00;5036454;28;20276;-85
2023/03/29 04:54:10;;;;;;;4.83;4.43;;;;;;;5.63;79.23;100749.13;5018974;28;20246;-84
2023/03/29 04:56:36;;;;;;;5.20;4.80;;;;;;;5.65;78.83;100737.06;5016325;28;20238;-84
2023/03/29 04:59:03;;;;;;;4.63;4.23;;;;;;;5.76;78.49;100730.25;5016607;28;20206;-83
2023/03/29 05:01:29;;;;;;;5.33;4.83;;;;;;;5.82;79.07;100734.59;5030237;28;20229;-82
2023/03/29 05:03:57;;;;;;;5.23;4.80;;;;;;;5.81;78.43;100736.31;5015818;28;20238;-84
2023/03/29 05:06:24;;;;;;;4.93;4.53;;;;;;;5.85;78.76;100744.97;5016358;28;20294;-84
2023/03/29 05:08:51;;;;;;;5.23;4.73;;;;;;;5.88;79.00;100737.22;5015677;28;20712;-84
2023/03/29 05:11:18;;;;;;;5.30;4.87;;;;;;;5.86;78.38;100738.94;5016457;28;20261;-85
2023/03/29 05:13:44;;;;;;;5.37;4.87;;;;;;;5.91;78.19;100747.59;5016649;28;20235;-83
2023/03/29 05:16:12;;;;;;;5.33;4.93;;;;;;;5.80;78.33;100750.13;5015928;28;20217;-84
2023/03/29 05:18:38;;;;;;;4.67;4.33;;;;;;;5.78;78.53;100739.75;5016790;28;20242;-85
2023/03/29 05:21:08;;;;;;;6.47;4.83;;;;;;;5.82;77.58;100743.22;5017490;28;20223;-84
2023/03/29 05:23:35;;;;;;;4.93;4.53;;;;;;;5.86;78.45;100752.72;5019160;28;20241;-83
2023/03/29 05:26:02;;;;;;;5.73;5.33;;;;;;;5.88;79.09;100750.16;5036066;28;20238;-84
2023/03/29 05:28:29;;;;;;;5.20;4.80;;;;;;;5.72;78.82;100741.44;5035100;28;20264;-83
2023/03/29 05:30:59;;;;;;;5.23;4.83;;;;;;;5.72;79.65;100718.97;5036155;28;20204;-84
2023/03/29 05:33:26;;;;;;;5.90;5.37;;;;;;;5.82;79.51;100708.69;5036349;28;20596;-84
2023/03/29 05:35:58;;;;;;;6.33;5.60;;;;;;;5.70;79.44;100710.34;5036355;28;20241;-83
2023/03/29 05:38:26;;;;;;;5.77;5.30;;;;;;;5.58;79.40;100705.09;5035900;28;20206;-85
2023/03/29 05:40:52;;;;;;;5.50;5.07;;;;;;;5.71;79.96;100686.19;5025124;28;20254;-82
2023/03/29 05:43:19;;;;;;;6.10;5.60;;;;;;;5.77;79.32;100683.63;5016822;28;20206;-83
2023/03/29 05:45:45;;;;;;;5.67;5.17;;;;;;;5.86;79.76;100675.00;5016240;28;20265;-83
2023/03/29 05:48:12;;;;;;;6.00;5.47;;;;;;;6.04;82.86;100650.06;5016742;28;20272;-84
2023/03/29 05:50:38;;;;;;;6.37;5.87;;;;;;;6.15;84.19;100599.16;5016818;28;20278;-85
2023/03/29 05:53:04;;;;;;;6.60;5.57;;;;;;;6.16;81.58;100601.75;5016318;28;20227;-85
2023/03/29 05:55:32;;;;;;;5.07;4.60;;;;;;;6.24;82.13;100604.31;5016536;28;20203;-85
2023/03/29 05:57:58;;;;;;;15.57;8.90;;;;;;;6.23;83.29;100615.56;5016658;28;20215;-84
2023/03/29 06:00:25;;;;;;;5.30;4.83;;;;;;;6.03;81.38;100617.25;5018399;28;20199;-82
2023/03/29 06:02:52;;;;;;;8.67;6.70;;;;;;;6.20;84.03;100568.91;5016584;28;20226;-84
2023/03/29 06:05:19;;;;;;;5.57;5.17;;;;;;;6.29;81.81;100553.34;5017035;28;20219;-85
2023/03/29 06:07:47;;;;;;;6.57;5.83;;;;;;;6.39;81.35;100595.72;5017485;28;20293;-85
2023/03/29 06:10:14;;;;;;;5.80;5.23;;;;;;;6.48;82.86;100566.31;5016758;28;20207;-84
2023/03/29 06:12:48;;;;;;;5.63;5.10;;;;;;;6.30;81.34;100600.88;5016535;28;20237;-84
2023/03/29 06:15:14;;;;;;;6.70;5.43;;;;;;;6.43;82.80;100610.41;5023048;28;20229;-84
2023/03/29 06:17:43;;;;;;;5.83;5.00;;;;;;;6.54;83.51;100587.06;5036732;28;20210;-84
2023/03/29 06:20:10;;;;;;;5.87;5.37;;;;;;;6.49;79.43;100633.75;5036899;28;20726;-84
2023/03/29 06:22:37;;;;;;;6.30;5.77;;;;;;;6.61;80.29;100656.22;5038789;28;20302;-82
2023/03/29 06:25:04;;;;;;;5.30;4.90;;;;;;;6.62;78.83;100667.47;5019768;28;20211;-84
2023/03/29 06:27:31;;;;;;;4.80;4.43;;;;;;;6.61;79.71;100702.91;5021960;28;20203;-83
2023/03/29 06:29:59;;;;;;;8.40;4.67;;;;;;;6.57;78.22;100704.63;5024786;28;20220;-84
2023/03/29 06:32:26;;;;;;;5.37;4.93;;;;;;;6.63;78.94;100708.13;5028740;28;20215;-82
2023/03/29 06:34:53;;;;;;;5.40;4.90;;;;;;;6.64;77.54;100725.38;5018365;28;20658;-84
2023/03/29 06:37:20;;;;;;;6.03;5.23;;;;;;;6.50;76.82;100770.34;5018162;28;20700;-83
2023/03/29 06:39:51;;;;;;;5.13;4.63;;;;;;;6.45;76.47;100790.19;5018911;28;20648;-84
2023/03/29 06:42:18;;;;;;;5.20;4.80;;;;;;;6.36;76.51;100803.09;5017561;28;20296;-84
2023/03/29 06:44:44;;;;;;;4.70;4.30;;;;;;;6.49;77.01;100809.22;5029958;28;20198;-86
2023/03/29 06:47:12;;;;;;;5.87;5.30;;;;;;;6.45;76.67;100816.13;5029103;28;20262;-84
2023/03/29 06:49:38;;;;;;;5.20;4.37;;;;;;;6.41;76.17;100821.28;5018389;28;20649;-84
2023/03/29 06:52:05;;;;;;;4.43;4.10;;;;;;;6.33;76.08;100822.13;5018188;28;20222;-83
2023/03/29 06:54:32;;;;;;;4.83;4.43;;;;;;;6.32;77.38;100817.81;5017077;28;20678;-84
2023/03/29 06:56:59;;;;;;;4.73;4.23;;;;;;;6.48;76.71;100816.16;5019690;28;20300;-84
2023/03/29 06:59:25;;;;;;;6.63;4.70;;;;;;;6.43;76.62;100822.16;5020254;28;20298;-84
2023/03/29 07:01:52;;;;;;;5.93;4.50;;;;;;;6.36;76.56;100827.34;5026274;28;20225;-82
2023/03/29 07:04:22;;;;;;;5.13;4.67;;;;;;;6.40;76.94;100817.81;5038436;28;20202;-82
2023/03/29 07:06:57;;;;;;;5.20;4.70;;;;;;;6.40;76.87;100820.41;5039012;28;20202;-83
2023/03/29 07:09:25;;;;;;;4.83;4.43;;;;;;;6.41;76.60;100816.13;5039087;28;20206;-84
2023/03/29 07:11:51;;;;;;;5.03;4.43;;;;;;;6.39;76.44;100816.09;5041271;28;20250;-84
2023/03/29 07:14:17;;;;;;;5.50;5.10;;;;;;;6.52;76.50;100823.06;5038591;28;20198;-84
2023/03/29 07:16:45;;;;;;;4.83;4.33;;;;;;;6.44;76.22;100819.59;5021700;28;20249;-83
2023/03/29 07:19:12;;;;;;;5.53;5.13;;;;;;;6.45;76.99;100815.25;5017270;28;20217;-83
2023/03/29 07:21:39;;;;;;;4.57;4.17;;;;;;;6.56;76.95;100805.78;5018278;28;20358;-84
2023/03/29 07:24:09;;;;;;;5.27;4.70;;;;;;;6.69;76.65;100804.97;5017628;28;20202;-81
2023/03/29 07:26:35;;;;;;;6.77;4.80;;;;;;;6.45;75.17;100823.03;5017927;28;20210;-83
2023/03/29 07:29:01;;;;;;;4.83;4.43;;;;;;;6.41;76.08;100839.44;5018797;28;20237;-83
2023/03/29 07:31:29;;;;;;;6.27;4.40;;;;;;;6.39;76.45;100838.56;5016736;28;20277;-84
2023/03/29 07:33:55;;;;;;;4.63;4.23;;;;;;;6.60;75.76;100823.09;5016776;28;20214;-83
2023/03/29 07:36:23;;;;;;;4.67;4.27;;;;;;;6.76;76.72;100806.72;5017789;28;20245;-83
2023/03/29 07:38:50;;;;;;;5.50;5.00;;;;;;;6.94;76.60;100799.84;5018624;28;20206;-84
2023/03/29 07:41:17;;;;;;;4.77;4.37;;;;;;;6.91;75.28;100820.59;5018241;28;20238;-83
2023/03/29 07:43:43;;;;;;;5.00;4.60;;;;;;;7.10;75.48;100819.75;5019029;28;20199;-84
2023/03/29 07:46:09;;;;;;;4.50;4.10;;;;;;;6.96;73.45;100858.66;5024916;28;20198;-82
2023/03/29 07:48:37;;;;;;;5.07;4.07;;;;;;;7.06;74.37;100879.47;5038884;28;20214;-84
2023/03/29 07:51:03;;;;;;;4.70;4.23;;;;;;;7.12;74.61;100882.94;5038894;28;20679;-84
2023/03/29 07:53:37;;;;;;;5.00;4.53;;;;;;;7.31;74.67;100867.38;5037449;28;20207;-86
2023/03/29 07:56:05;;;;;;;4.97;4.10;;;;;;;7.26;73.22;100895.09;5035183;28;20572;-85
2023/03/29 07:58:33;;;;;;;6.40;4.30;;;;;;;7.28;73.04;100908.94;5039970;28;20206;-86
2023/03/29 08:01:00;;;;;;;4.50;4.10;;;;;;;7.31;73.06;100933.19;5032826;28;20217;-84
2023/03/29 08:03:27;;;;;;;4.50;4.10;;;;;;;7.32;73.24;100944.44;5019900;28;20237;-84
2023/03/29 08:05:54;;;;;;;4.23;3.83;;;;;;;7.34;73.04;100946.16;5020498;28;20273;-84
2023/03/29 08:08:20;;;;;;;6.23;4.17;;;;;;;7.35;72.84;100944.41;5029367;28;20206;-84
2023/03/29 08:10:47;;;;;;;4.13;3.47;;;;;;;7.39;74.00;100942.69;5039971;28;20211;-85
2023/03/29 08:13:15;;;;;;;4.13;3.73;;;;;;;7.31;72.91;100959.16;5039360;28;20612;-84
2023/03/29 08:15:49;;;;;;;4.47;4.17;;;;;;;7.30;72.73;100962.59;5039389;28;20214;-84
2023/03/29 08:18:16;;;;;;;4.47;4.07;;;;;;;7.34;72.82;100961.75;5040896;28;20676;-85
2023/03/29 08:21:00;;;;;;;4.70;3.70;;;;;;;7.41;73.58;100947.03;5042740;28;20210;-84
2023/03/29 08:23:29;;;;;;;4.83;4.03;;;;;;;7.44;73.27;100926.28;5027065;28;20258;-85
2023/03/29 08:25:56;;;;;;;5.10;4.50;;;;;;;7.49;72.54;100939.25;5030311;28;20233;-84
2023/03/29 08:28:23;;;;;;;4.93;4.40;;;;;;;7.50;72.87;100934.06;5044107;28;20206;-84
2023/03/29 08:30:50;;;;;;;5.10;4.57;;;;;;;7.49;72.63;100934.06;5040793;28;20557;-87
2023/03/29 08:33:17;;;;;;;4.67;4.27;;;;;;;7.72;75.46;100927.16;5041006;28;20218;-84
2023/03/29 08:35:43;;;;;;;4.77;4.27;;;;;;;7.76;72.35;100897.72;5039796;28;20209;-86
2023/03/29 08:38:11;;;;;;;4.80;4.40;;;;;;;7.67;72.02;100956.59;5038994;28;20206;-84
2023/03/29 08:40:37;;;;;;;4.17;3.87;;;;;;;7.89;74.53;100947.13;5039812;28;20609;-85
2023/03/29 08:43:20;;;;;;;5.60;4.60;;;;;;;7.54;71.87;100954.00;5040230;28;20226;-85
2023/03/29 08:45:59;;;;;;;6.47;4.60;;;;;;;7.67;72.70;100959.19;5041309;28;20214;-85
2023/03/29 08:48:29;;;;;;;4.40;4.10;;;;;;;7.71;72.38;100941.03;5041679;28;20228;-84
2023/03/29 08:50:59;;;;;;;4.20;3.90;;;;;;;7.92;73.33;100947.09;5045158;28;20206;-83
2023/03/29 08:53:31;;;;;;;5.83;4.37;;;;;;;8.00;71.68;100939.31;5040892;28;20210;-82
2023/03/29 08:56:01;;;;;;;4.50;4.20;;;;;;;8.19;71.70;100942.78;5032008;28;20211;-83
2023/03/29 08:58:32;;;;;;;5.47;5.07;;;;;;;8.26;71.13;100949.69;5026214;28;20438;-82
2023/03/29 09:01:01;;;;;;;4.87;4.37;;;;;;;8.48;71.35;100973.94;5020989;28;20249;-85
2023/03/29 09:03:32;;;;;;;5.07;4.47;;;;;;;8.50;71.14;100990.44;5016337;28;20259;-83
2023/03/29 09:06:03;;;;;;;4.80;4.40;;;;;;;8.62;70.88;100984.34;5018220;28;20267;-84
2023/03/29 09:08:30;;;;;;;5.50;5.10;;;;;;;8.60;69.98;101002.53;5036942;28;20452;-84
2023/03/29 09:11:22;;;;;;;5.17;4.70;;;;;;;8.52;69.66;101001.69;5022844;28;20210;-82
2023/03/29 09:13:56;;;;;;;5.03;4.53;;;;;;;8.12;70.69;101020.75;5017153;28;20234;-84
2023/03/29 09:16:32;;;;;;;4.67;4.23;;;;;;;8.01;71.57;101009.50;5017755;28;20216;-84
2023/03/29 09:19:07;;;;;;;5.20;4.70;;;;;;;8.25;71.69;100986.97;5018003;28;20243;-82
2023/03/29 09:21:45;;;;;;;5.20;4.40;;;;;;;8.28;72.08;100954.00;5017252;28;20220;-84
2023/03/29 09:24:32;;;;;;;4.57;4.23;;;;;;;8.34;72.28;100967.03;5016608;28;20204;-84
2023/03/29 09:27:04;;;;;;;5.27;4.50;;;;;;;8.41;71.34;100948.81;5010352;28;20214;-83
2023/03/29 09:29:47;;;;;;;4.17;3.87;;;;;;;8.50;70.78;100969.63;5018089;28;20748;-82
2023/03/29 09:32:21;;;;;;;5.17;4.63;;;;;;;8.72;72.32;100957.41;5018036;28;20223;-84
2023/03/29 09:34:57;;;;;;;5.90;5.30;;;;;;;8.90;72.07;100935.66;5016410;28;20267;-83
2023/03/29 09:37:31;;;;;;;5.13;4.73;;;;;;;8.74;70.87;100942.66;5016309;28;20227;-82
2023/03/29 09:39:58;;;;;;;4.90;4.50;;;;;;;8.84;71.00;100964.31;5013964;28;20611;-85
2023/03/29 09:42:28;;;;;;;5.10;4.60;;;;;;;8.80;70.75;100967.81;5017695;28;20223;-82
2023/03/29 09:45:00;;;;;;;5.63;4.33;;;;;;;8.90;71.74;100965.19;5021160;28;20206;-81
2023/03/29 09:47:34;;;;;;;5.10;4.60;;;;;;;8.85;71.80;100958.25;5016793;28;20207;-82
2023/03/29 09:50:06;;;;;;;5.37;4.87;;;;;;;8.84;71.41;100972.13;5017678;28;20216;-81
2023/03/29 09:52:32;;;;;;;5.07;4.57;;;;;;;8.90;72.31;100948.66;5016116;28;20223;-81
2023/03/29 09:55:00;;;;;;;5.03;4.63;;;;;;;8.54;71.65;100959.22;5018482;28;20681;-81
2023/03/29 09:57:29;;;;;;;5.33;4.33;;;;;;;8.73;72.51;100938.34;5032015;28;20240;-82
2023/03/29 09:59:56;;;;;;;5.60;5.07;;;;;;;8.68;73.42;100927.94;5036157;28;20199;-81
2023/03/29 10:02:22;;;;;;;5.10;4.60;;;;;;;8.63;72.88;100908.88;5035158;28;20705;-80
2023/03/29 10:04:57;;;;;;;4.67;4.37;;;;;;;8.77;73.59;100888.00;5035302;28;20280;-80
2023/03/29 10:07:23;;;;;;;5.40;4.90;;;;;;;8.85;74.69;100848.91;5017576;28;20299;-81
2023/03/29 10:09:52;;;;;;;4.53;4.13;;;;;;;8.72;73.64;100855.91;5015895;28;20582;-81
2023/03/29 10:12:19;;;;;;;4.67;4.27;;;;;;;8.89;73.43;100850.63;5015721;28;20231;-80
2023/03/29 10:14:49;;;;;;;6.47;5.87;;;;;;;8.93;73.15;100845.38;5015748;28;20207;-82
2023/03/29 10:17:21;;;;;;;6.07;4.87;;;;;;;9.14;73.43;100848.75;5015841;28;20213;-82
2023/03/29 10:19:49;;;;;;;6.03;5.53;;;;;;;9.22;74.19;100840.91;5016535;28;20210;-83
2023/03/29 10:22:21;;;;;;;5.40;4.97;;;;;;;9.30;73.08;100846.91;5016510;28;20229;-82
2023/03/29 10:24:50;;;;;;;5.37;4.97;;;;;;;9.41;73.16;100852.88;5015650;28;20249;-82
2023/03/29 10:27:22;;;;;;;5.13;4.73;;;;;;;9.38;72.88;100858.13;5016498;28;20210;-81
2023/03/29 10:29:49;;;;;;;5.03;4.53;;;;;;;9.34;72.18;100875.53;5016514;28;20217;-82
2023/03/29 10:32:18;;;;;;;5.40;4.90;;;;;;;9.17;73.42;100884.31;5015970;28;20731;-82
2023/03/29 10:34:46;;;;;;;5.53;4.83;;;;;;;9.17;74.06;100861.75;5016598;28;20582;-81
2023/03/29 10:37:15;;;;;;;5.53;5.03;;;;;;;9.37;74.19;100842.50;4996377;28;20205;-81
2023/03/29 10:39:43;;;;;;;4.70;4.30;;;;;;;9.66;74.24;100827.50;4994564;28;20211;-81
2023/03/29 10:42:13;;;;;;;5.07;4.60;;;;;;;9.85;73.96;100841.25;4994511;28;20224;-82
2023/03/29 10:44:40;;;;;;;7.50;4.63;;;;;;;9.99;73.11;100851.53;4993449;28;20678;-80
2023/03/29 10:47:15;;;;;;;4.77;4.37;;;;;;;10.01;73.42;100854.13;4993227;28;20256;-82
2023/03/29 10:49:45;;;;;;;4.87;4.40;;;;;;;10.08;72.89;100856.66;4996204;28;20563;-81
2023/03/29 10:52:13;;;;;;;5.53;5.07;;;;;;;10.22;72.69;100850.44;5033068;28;20336;-81
2023/03/29 10:54:40;;;;;;;5.37;4.93;;;;;;;10.04;72.26;100874.97;5017897;28;20209;-81
2023/03/29 10:57:10;;;;;;;4.80;4.50;;;;;;;10.09;72.82;100865.34;5017735;28;20215;-80
2023/03/29 10:59:46;;;;;;;5.17;4.77;;;;;;;10.19;74.15;100850.44;5032402;28;20212;-80
2023/03/29 11:02:37;;;;;;;5.43;5.03;;;;;;;10.31;74.68;100813.84;5032045;28;20353;-81
2023/03/29 11:05:24;;;;;;;6.17;5.57;;;;;;;10.45;74.33;100805.84;5031447;28;20194;-80
2023/03/29 11:08:07;;;;;;;6.73;6.10;;;;;;;10.17;73.36;100829.63;5032058;28;20210;-80
2023/03/29 11:10:42;;;;;;;6.70;6.10;;;;;;;10.37;73.93;100816.38;5032327;28;20762;-81
2023/03/29 11:13:21;;;;;;;6.37;5.87;;;;;;;10.26;74.28;100808.63;5032759;28;20237;-80
2023/03/29 11:16:01;;;;;;;6.37;5.87;;;;;;;10.17;74.56;100798.31;5032396;28;20216;-80
2023/03/29 11:18:47;;;;;;;6.70;6.10;;;;;;;10.45;75.17;100769.31;5032806;28;20240;-79
2023/03/29 11:21:23;;;;;;;6.80;6.20;;;;;;;10.56;74.24;100776.97;5032288;28;20722;-81
2023/03/29 11:24:00;;;;;;;6.97;6.27;;;;;;;10.30;74.80;100799.91;5027186;28;20238;-80
2023/03/29 11:26:34;;;;;;;7.17;6.53;;;;;;;10.61;75.01;100760.38;5031751;28;20209;-79
2023/03/29 11:29:08;;;;;;;6.47;5.87;;;;;;;10.95;73.10;100770.34;5032469;28;20232;-80
2023/03/29 11:31:41;;;;;;;6.80;6.30;;;;;;;11.10;71.04;100803.22;5030570;28;20755;-79
2023/03/29 11:34:23;;;;;;;7.47;6.20;;;;;;;11.18;70.65;100864.03;5019105;28;20644;-79
2023/03/29 11:36:59;;;;;;;6.00;5.57;;;;;;;11.33;71.78;100868.16;5012381;28;20244;-80
2023/03/29 11:39:34;;;;;;;6.17;5.63;;;;;;;12.01;70.23;100881.03;5012537;28;20205;-80
2023/03/29 11:42:07;;;;;;;6.20;5.70;;;;;;;12.36;68.04;100903.06;5012799;28;20307;-79